Roanoke Regional Woodrum Field
KROA : now visible

Airfield :











YOU CAN JOIN US ON...

 
LOGIN :

Register | Disclaimer

   EN    FR    IT 

 









Legend :    VFR   Marginal VFR   IFR   Intensive IFR   Very Intensive IFR
Visi :
Ceiling :
>= 8 km
>= 3000ft
5 to 8 km
1000 to 3000 ft
1500m to 5 km
500 to 1000 ft
800 to 1500m
200 to 500 ft
< 800m
< 200 ft
Symbols :   Thunderstorms  Fog  Heavy snow  Heavy precipitations  Wind > 20 kt







- Airport Elevation : 1175 ft
- IATA code : ROA


KROA - Roanoke Regional Woodrum Field

CURRENT METAR :
  • 200854Z 00000KT 10SM CLR M01/M06 A3034 RMK AO2 SLP279 T10061061 58006

EXPIRED METARs :
  • 200754Z 00000KT 10SM CLR M01/M06 A3035 RMK AO2 SLP282 T10061061
  • 200654Z 00000KT 10SM CLR 01/M06 A3036 RMK AO2 SLP285 T00061061

TAF KROA
Valid from the 20 at 06:00 until the 21 at 06:00 UTC


200520Z 2006/2106 00000KT P6SM SCT250
FM201900 14008KT P6SM BKN250
FM210000 VRB04KT P6SM BKN100
FM210400 VRB03KT P6SM OVC035
KZDC FIR / North America



MET'MAP, your aeronautical weather chart ! - Copyright ORBIFLY December 2007 - Disclaimer

ORBIFLY MET'MAP TEAM :

Programming & Development : Alexandra Zaïnal
Concept & Development : Baudouin d'Aumeries
Co-Development & Prog : Marc-Olivier Méhu
Technical & hardware support : Manuel Goepfert

Contact : metmap@orbifly.com




SOURCES & CREDITS :

   NOAA       Earth
Advisory